createdAt,value
2018-07-31T00:01:36.580Z,100303.75
2018-07-31T00:04:04.727Z,100302.55
2018-07-31T00:06:33.289Z,100302.94
2018-07-31T00:09:01.953Z,100298.91
2018-07-31T00:11:30.572Z,100300.95
2018-07-31T00:13:59.088Z,100293.05
2018-07-31T00:16:27.774Z,100291.64
2018-07-31T00:18:56.293Z,100297.46
2018-07-31T00:21:24.925Z,100295.59
2018-07-31T00:23:53.847Z,100295.31
2018-07-31T00:26:22.583Z,100294.70
2018-07-31T00:28:51.879Z,100288.88
2018-07-31T00:31:21.370Z,100288.88
2018-07-31T00:33:49.703Z,100294.52
2018-07-31T00:36:18.550Z,100285.12
2018-07-31T00:38:47.029Z,100284.32
2018-07-31T00:41:15.092Z,100285.55
2018-07-31T00:43:43.265Z,100291.18
2018-07-31T00:46:11.329Z,100287.09
2018-07-31T00:48:39.360Z,100293.89
2018-07-31T00:51:07.412Z,100295.77
2018-07-31T00:53:35.512Z,100290.84
2018-07-31T00:56:03.657Z,100290.66
2018-07-31T00:58:31.959Z,100285.49
2018-07-31T01:01:00.046Z,100287.09
2018-07-31T01:03:28.054Z,100282.86
2018-07-31T01:05:56.099Z,100285.49
2018-07-31T01:08:24.164Z,100279.53
2018-07-31T01:10:52.234Z,100280.56
2018-07-31T01:13:20.256Z,100279.16
2018-07-31T01:15:48.312Z,100274.94
2018-07-31T01:18:16.345Z,100274.42
2018-07-31T01:20:47.686Z,100270.47
2018-07-31T01:23:15.726Z,100273.91
2018-07-31T01:25:43.768Z,100287.30
2018-07-31T01:28:11.835Z,100287.16
2018-07-31T01:30:39.876Z,100283.72
2018-07-31T01:33:07.944Z,100292.80
2018-07-31T01:35:36.002Z,100280.84
2018-07-31T01:38:04.047Z,100293.09
2018-07-31T01:40:32.081Z,100288.86
2018-07-31T01:43:00.120Z,100281.30
2018-07-31T01:45:28.151Z,100279.64
2018-07-31T01:47:56.208Z,100273.94
2018-07-31T01:50:24.250Z,100274.03
2018-07-31T01:52:52.274Z,100270.08
2018-07-31T01:55:20.335Z,100270.69
2018-07-31T01:57:48.367Z,100270.69
2018-07-31T02:00:16.556Z,100269.98
2018-07-31T02:02:45.820Z,100267.09
2018-07-31T02:05:14.047Z,100262.53
2018-07-31T02:07:42.118Z,100259.72
2018-07-31T02:10:10.160Z,100258.58
2018-07-31T02:12:38.208Z,100255.92
2018-07-31T02:15:06.677Z,100257.78
2018-07-31T02:17:34.731Z,100256.98
2018-07-31T02:20:02.867Z,100250.28
2018-07-31T02:22:31.284Z,100252.91
2018-07-31T02:24:59.643Z,100249.75
2018-07-31T02:27:27.924Z,100247.02
2018-07-31T02:30:01.442Z,100249.03
2018-07-31T02:32:29.789Z,100253.63
2018-07-31T02:34:58.343Z,100252.45
2018-07-31T02:37:26.923Z,100250.09
2018-07-31T02:39:55.708Z,100251.92
2018-07-31T02:42:24.493Z,100252.72
2018-07-31T02:44:53.328Z,100248.35
2018-07-31T02:47:22.842Z,100247.89
2018-07-31T02:49:51.767Z,100253.52
2018-07-31T02:52:20.564Z,100252.72
2018-07-31T02:54:49.671Z,100252.72
2018-07-31T02:57:17.924Z,100249.56
2018-07-31T02:59:45.980Z,100252.38
2018-07-31T03:02:14.051Z,100256.06
2018-07-31T03:04:42.094Z,100251.51
2018-07-31T03:07:10.153Z,100253.78
2018-07-31T03:09:38.196Z,100250.07
2018-07-31T03:12:06.256Z,100262.19
2018-07-31T03:14:34.333Z,100254.63
2018-07-31T03:17:02.611Z,100250.78
2018-07-31T03:19:31.068Z,100253.75
2018-07-31T03:21:59.660Z,100249.00
2018-07-31T03:24:28.121Z,100254.96
2018-07-31T03:26:56.497Z,100258.30
2018-07-31T03:29:25.692Z,100264.97
2018-07-31T03:31:55.000Z,100267.41
2018-07-31T03:34:23.431Z,100271.45
2018-07-31T03:36:51.787Z,100265.65
2018-07-31T03:39:20.835Z,100264.77
2018-07-31T03:41:49.459Z,100269.14
2018-07-31T03:44:17.568Z,100253.16
2018-07-31T03:46:45.658Z,100262.42
2018-07-31T03:49:13.726Z,100261.97
2018-07-31T03:51:41.772Z,100261.02
2018-07-31T03:54:09.835Z,100258.81
2018-07-31T03:56:37.903Z,100266.52
2018-07-31T03:59:05.962Z,100261.16
2018-07-31T04:01:34.038Z,100266.33
2018-07-31T04:04:02.087Z,100269.86
2018-07-31T04:06:30.153Z,100272.34
2018-07-31T04:08:58.199Z,100278.49
2018-07-31T04:11:26.229Z,100281.58
2018-07-31T04:13:54.270Z,100280.28
2018-07-31T04:16:22.315Z,100282.04
2018-07-31T04:18:50.340Z,100290.89
2018-07-31T04:21:18.391Z,100291.33
2018-07-31T04:23:46.428Z,100288.00
2018-07-31T04:26:14.551Z,100299.78
2018-07-31T04:28:42.584Z,100295.30
2018-07-31T04:31:10.663Z,100293.20
2018-07-31T04:33:38.712Z,100303.92
2018-07-31T04:36:06.774Z,100307.19
2018-07-31T04:38:34.820Z,100310.53
2018-07-31T04:41:02.891Z,100316.72
2018-07-31T04:43:30.927Z,100318.63
2018-07-31T04:45:58.951Z,100316.23
2018-07-31T04:48:27.004Z,100317.03
2018-07-31T04:50:55.032Z,100328.50
2018-07-31T04:53:23.084Z,100326.42
2018-07-31T04:55:51.120Z,100321.64
2018-07-31T04:58:19.416Z,100319.95
2018-07-31T05:00:47.473Z,100318.98
2018-07-31T05:03:15.534Z,100319.69
2018-07-31T05:05:43.551Z,100322.48
2018-07-31T05:08:11.603Z,100323.32
2018-07-31T05:10:39.732Z,100317.68
2018-07-31T05:13:07.780Z,100314.48
2018-07-31T05:15:35.858Z,100315.86
2018-07-31T05:18:03.907Z,100306.34
2018-07-31T05:20:31.941Z,100307.12
2018-07-31T05:22:59.983Z,100317.47
2018-07-31T05:25:28.028Z,100317.67
2018-07-31T05:27:56.423Z,100325.55
2018-07-31T05:30:24.459Z,100329.31
2018-07-31T05:32:52.553Z,100331.74
2018-07-31T05:35:20.547Z,100336.80
2018-07-31T05:37:48.573Z,100338.08
2018-07-31T05:40:16.599Z,100339.65
2018-07-31T05:42:44.626Z,100344.58
2018-07-31T05:45:12.675Z,100345.45
2018-07-31T05:47:41.006Z,100346.20
2018-07-31T05:50:09.893Z,100351.33
2018-07-31T05:52:38.176Z,100343.99
2018-07-31T05:55:06.330Z,100341.19
2018-07-31T05:57:34.650Z,100342.69
2018-07-31T06:00:02.820Z,100340.17
2018-07-31T06:02:31.092Z,100347.34
2018-07-31T06:04:59.343Z,100351.92
2018-07-31T06:07:27.585Z,100351.45
2018-07-31T06:09:56.135Z,100357.70
2018-07-31T06:12:24.455Z,100356.42
2018-07-31T06:14:52.494Z,100359.19
2018-07-31T06:17:20.527Z,100360.61
2018-07-31T06:19:48.559Z,100356.74
2018-07-31T06:22:16.608Z,100360.18
2018-07-31T06:24:44.648Z,100358.29
2018-07-31T06:27:12.688Z,100359.16
2018-07-31T06:29:40.955Z,100355.59
2018-07-31T06:32:09.173Z,100360.22
2018-07-31T06:34:37.199Z,100355.53
2018-07-31T06:37:05.432Z,100351.91
2018-07-31T06:39:33.468Z,100347.19
2018-07-31T06:42:01.500Z,100342.97
2018-07-31T06:44:44.533Z,100340.55
2018-07-31T06:47:12.563Z,100348.02
2018-07-31T06:49:40.620Z,100354.84
2018-07-31T06:52:08.662Z,100356.73
2018-07-31T06:54:36.712Z,100359.48
2018-07-31T06:57:04.751Z,100357.85
2018-07-31T06:59:32.819Z,100354.97
2018-07-31T07:02:00.892Z,100353.23
2018-07-31T07:04:28.909Z,100342.57
2018-07-31T07:06:57.208Z,100344.68
2018-07-31T07:09:25.231Z,100347.68
2018-07-31T07:11:53.267Z,100354.08
2018-07-31T07:14:21.320Z,100351.89
2018-07-31T07:16:49.380Z,100356.09
2018-07-31T07:19:17.430Z,100365.87
2018-07-31T07:21:45.483Z,100368.30
2018-07-31T07:27:03.738Z,100370.53
2018-07-31T07:29:31.763Z,100371.86
2018-07-31T07:31:59.794Z,100378.94
2018-07-31T07:34:27.909Z,100389.42
2018-07-31T07:36:55.959Z,100392.11
2018-07-31T07:39:23.995Z,100395.59
2018-07-31T07:41:52.047Z,100395.34
2018-07-31T07:44:20.139Z,100393.48
2018-07-31T07:46:48.200Z,100388.85
2018-07-31T07:49:16.239Z,100384.38
2018-07-31T07:51:44.295Z,100378.22
2018-07-31T07:54:12.420Z,100379.73
2018-07-31T07:56:40.386Z,100380.28
2018-07-31T07:59:08.422Z,100382.09
2018-07-31T08:01:36.503Z,100383.13
2018-07-31T08:04:04.541Z,100382.06
2018-07-31T08:06:32.617Z,100378.17
2018-07-31T08:09:00.861Z,100378.12
2018-07-31T08:11:28.884Z,100386.33
2018-07-31T08:13:56.911Z,100378.54
2018-07-31T08:16:24.969Z,100377.17
2018-07-31T08:18:53.031Z,100388.92
2018-07-31T08:21:21.067Z,100383.48
2018-07-31T08:23:49.159Z,100389.78
2018-07-31T08:26:17.251Z,100383.37
2018-07-31T08:28:45.300Z,100379.16
2018-07-31T08:31:13.380Z,100383.35
2018-07-31T08:33:41.440Z,100384.53
2018-07-31T08:36:09.480Z,100387.85
2018-07-31T08:38:37.634Z,100392.64
2018-07-31T08:41:05.703Z,100396.73
2018-07-31T08:43:33.825Z,100398.90
2018-07-31T08:46:01.890Z,100396.40
2018-07-31T08:48:29.961Z,100400.28
2018-07-31T08:50:58.004Z,100392.01
2018-07-31T08:53:26.444Z,100388.84
2018-07-31T08:55:54.513Z,100392.17
2018-07-31T08:58:22.531Z,100390.36
2018-07-31T09:00:50.586Z,100388.52
2018-07-31T09:03:18.671Z,100386.02
2018-07-31T09:05:46.704Z,100389.20
2018-07-31T09:08:14.919Z,100390.91
2018-07-31T09:10:43.014Z,100392.58
2018-07-31T09:13:11.040Z,100386.95
2018-07-31T09:15:39.078Z,100387.02
2018-07-31T09:18:07.120Z,100380.99
2018-07-31T09:20:35.156Z,100386.59
2018-07-31T09:23:03.219Z,100385.81
2018-07-31T09:25:36.728Z,100389.22
2018-07-31T09:28:04.787Z,100385.03
2018-07-31T09:30:32.855Z,100391.82
2018-07-31T09:33:08.199Z,100393.34
2018-07-31T09:35:36.802Z,100393.70
2018-07-31T09:38:04.880Z,100387.64
2018-07-31T09:40:32.915Z,100385.45
2018-07-31T09:43:00.992Z,100391.92
2018-07-31T09:45:29.296Z,100384.81
2018-07-31T09:47:57.351Z,100387.66
2018-07-31T09:50:25.367Z,100383.98
2018-07-31T09:52:53.411Z,100386.33
2018-07-31T09:55:28.233Z,100372.56
2018-07-31T09:57:56.239Z,100374.11
2018-07-31T10:00:29.711Z,100385.42
2018-07-31T10:02:57.759Z,100375.33
2018-07-31T10:05:25.850Z,100390.61
2018-07-31T10:07:53.835Z,100384.46
2018-07-31T10:10:21.863Z,100379.53
2018-07-31T10:12:49.907Z,100379.16
2018-07-31T10:15:17.954Z,100373.42
2018-07-31T10:17:46.039Z,100373.81
2018-07-31T10:20:14.007Z,100370.55
2018-07-31T10:22:42.056Z,100388.79
2018-07-31T10:25:10.095Z,100383.87
2018-07-31T10:27:38.168Z,100383.84
2018-07-31T10:30:06.799Z,100385.67
2018-07-31T10:32:34.882Z,100388.16
2018-07-31T10:35:02.895Z,100387.55
2018-07-31T10:37:30.972Z,100389.12
2018-07-31T10:39:58.983Z,100390.33
2018-07-31T10:42:27.200Z,100401.29
2018-07-31T10:44:55.254Z,100393.81
2018-07-31T10:47:23.303Z,100393.45
2018-07-31T10:49:51.347Z,100394.13
2018-07-31T10:52:19.396Z,100384.52
2018-07-31T10:54:47.438Z,100398.06
2018-07-31T10:57:15.468Z,100393.36
2018-07-31T10:59:43.630Z,100389.47
2018-07-31T11:02:11.594Z,100388.66
2018-07-31T11:04:39.652Z,100385.03
2018-07-31T11:07:07.671Z,100388.17
2018-07-31T11:09:35.772Z,100385.69
2018-07-31T11:12:03.939Z,100384.10
2018-07-31T11:14:31.964Z,100391.53
2018-07-31T11:17:00.104Z,100390.10
2018-07-31T11:19:28.127Z,100385.69
2018-07-31T11:21:56.161Z,100391.67
2018-07-31T11:24:24.272Z,100385.05
2018-07-31T11:26:52.320Z,100378.78
2018-07-31T11:29:20.351Z,100392.45
2018-07-31T11:31:48.511Z,100382.28
2018-07-31T11:34:16.736Z,100380.95
2018-07-31T11:36:45.207Z,100384.34
2018-07-31T11:39:13.424Z,100385.34
2018-07-31T11:41:41.491Z,100382.50
2018-07-31T11:44:09.540Z,100370.81
2018-07-31T11:46:37.976Z,100383.08
2018-07-31T11:49:06.358Z,100372.39
2018-07-31T11:51:34.607Z,100370.17
2018-07-31T11:54:02.735Z,100376.56
2018-07-31T11:56:30.933Z,100373.05
2018-07-31T11:58:59.519Z,100367.72
2018-07-31T12:01:27.832Z,100369.98
2018-07-31T12:03:56.223Z,100371.16
2018-07-31T12:06:24.282Z,100364.63
2018-07-31T12:08:53.173Z,100367.91
2018-07-31T12:11:21.259Z,100375.42
2018-07-31T12:13:49.344Z,100379.86
2018-07-31T12:16:17.429Z,100374.14
2018-07-31T12:18:45.445Z,100367.62
2018-07-31T12:21:13.499Z,100373.48
2018-07-31T12:23:41.587Z,100362.80
2018-07-31T12:26:09.597Z,100381.30
2018-07-31T12:28:37.663Z,100379.61
2018-07-31T12:31:05.756Z,100374.64
2018-07-31T12:33:33.823Z,100376.08
2018-07-31T12:36:01.942Z,100378.70
2018-07-31T12:38:30.190Z,100376.35
2018-07-31T12:40:58.301Z,100382.34
2018-07-31T12:43:26.507Z,100379.48
2018-07-31T12:45:54.672Z,100384.53
2018-07-31T12:48:22.945Z,100390.90
2018-07-31T12:50:51.225Z,100395.08
2018-07-31T12:53:19.464Z,100386.98
2018-07-31T12:55:47.644Z,100389.47
2018-07-31T12:58:15.906Z,100393.11
2018-07-31T13:00:44.077Z,100393.91
2018-07-31T13:03:12.191Z,100389.05
2018-07-31T13:05:41.165Z,100389.27
2018-07-31T13:08:09.211Z,100395.12
2018-07-31T13:10:37.289Z,100400.98
2018-07-31T13:13:05.322Z,100397.88
2018-07-31T13:15:33.347Z,100398.02
2018-07-31T13:18:01.472Z,100392.95
2018-07-31T13:20:29.492Z,100391.17
2018-07-31T13:22:57.592Z,100394.58
2018-07-31T13:25:25.579Z,100390.67
2018-07-31T13:27:53.665Z,100385.59
2018-07-31T13:30:21.638Z,100394.45
2018-07-31T13:32:49.784Z,100394.45
2018-07-31T13:35:17.832Z,100385.21
2018-07-31T13:37:45.864Z,100385.71
2018-07-31T13:40:13.928Z,100372.57
2018-07-31T13:42:41.986Z,100378.48
2018-07-31T13:45:10.029Z,100367.66
2018-07-31T13:47:38.072Z,100387.27
2018-07-31T13:50:06.125Z,100379.84
2018-07-31T13:52:34.154Z,100381.94
2018-07-31T13:55:02.204Z,100386.89
2018-07-31T13:57:30.229Z,100376.39
2018-07-31T13:59:58.262Z,100377.69
2018-07-31T14:02:26.293Z,100385.23
2018-07-31T14:04:54.337Z,100378.36
2018-07-31T14:07:22.371Z,100391.11
2018-07-31T14:09:50.403Z,100381.88
2018-07-31T14:12:18.443Z,100387.60
2018-07-31T14:14:46.491Z,100381.72
2018-07-31T14:17:14.528Z,100381.33
2018-07-31T14:19:42.648Z,100389.25
2018-07-31T14:22:10.658Z,100386.41
2018-07-31T14:24:38.728Z,100393.00
2018-07-31T14:27:06.747Z,100385.33
2018-07-31T14:29:34.779Z,100384.19
2018-07-31T14:32:02.811Z,100396.87
2018-07-31T14:34:30.915Z,100392.31
2018-07-31T14:36:58.923Z,100393.62
2018-07-31T14:39:26.978Z,100390.04
2018-07-31T14:41:55.017Z,100388.39
2018-07-31T14:44:23.075Z,100383.20
2018-07-31T14:46:51.107Z,100386.22
2018-07-31T14:49:19.160Z,100381.09
2018-07-31T14:51:47.211Z,100378.47
2018-07-31T14:54:15.259Z,100375.77
2018-07-31T14:56:43.299Z,100375.13
2018-07-31T14:59:11.330Z,100379.58
2018-07-31T15:01:39.392Z,100383.23
2018-07-31T15:04:07.463Z,100374.14
2018-07-31T15:06:35.480Z,100393.77
2018-07-31T15:09:03.991Z,100390.91
2018-07-31T15:11:32.089Z,100395.20
2018-07-31T15:14:00.071Z,100391.02
2018-07-31T15:16:28.087Z,100395.94
2018-07-31T15:18:56.140Z,100393.81
2018-07-31T15:21:24.457Z,100394.66
2018-07-31T15:23:52.508Z,100396.87
2018-07-31T15:26:20.520Z,100396.74
2018-07-31T15:28:48.563Z,100395.45
2018-07-31T15:31:16.607Z,100359.73
2018-07-31T15:33:44.655Z,100396.41
2018-07-31T15:36:12.716Z,100403.03
2018-07-31T15:38:40.732Z,100399.67
2018-07-31T15:41:08.813Z,100401.52
2018-07-31T15:43:36.827Z,100404.23
2018-07-31T15:46:04.919Z,100408.48
2018-07-31T15:48:33.038Z,100407.16
2018-07-31T15:51:01.063Z,100411.86
2018-07-31T15:53:29.116Z,100396.02
2018-07-31T15:55:57.343Z,100414.72
2018-07-31T15:58:25.350Z,100405.63
2018-07-31T16:00:53.396Z,100404.04
2018-07-31T16:03:21.422Z,100404.43
2018-07-31T16:05:49.498Z,100406.53
2018-07-31T16:08:17.491Z,100406.18
2018-07-31T16:10:45.544Z,100406.73
2018-07-31T16:13:13.606Z,100409.30
2018-07-31T16:15:41.651Z,100412.16
2018-07-31T16:18:09.701Z,100418.24
2018-07-31T16:20:37.731Z,100413.13
2018-07-31T16:23:05.970Z,100412.83
2018-07-31T16:25:34.015Z,100417.88
2018-07-31T16:28:02.087Z,100416.59
2018-07-31T16:30:30.389Z,100418.88
2018-07-31T16:32:58.704Z,100422.00
2018-07-31T16:35:27.068Z,100424.86
2018-07-31T16:37:55.143Z,100423.69
2018-07-31T16:40:23.155Z,100428.40
2018-07-31T16:42:51.221Z,100425.20
2018-07-31T16:45:19.260Z,100433.97
2018-07-31T16:47:47.343Z,100430.78
2018-07-31T16:50:15.400Z,100438.20
2018-07-31T16:52:43.431Z,100442.32
2018-07-31T16:55:11.460Z,100444.88
2018-07-31T16:57:39.500Z,100446.33
2018-07-31T17:00:07.876Z,100448.94
2018-07-31T17:02:35.918Z,100440.95
2018-07-31T17:05:04.011Z,100443.44
2018-07-31T17:07:32.049Z,100450.87
2018-07-31T17:10:00.063Z,100449.52
2018-07-31T17:12:28.107Z,100449.27
2018-07-31T17:14:56.150Z,100441.95
2018-07-31T17:17:24.167Z,100451.33
2018-07-31T17:19:52.230Z,100421.62
2018-07-31T17:22:20.262Z,100453.84
2018-07-31T17:24:48.292Z,100462.12
2018-07-31T17:27:16.332Z,100461.09
2018-07-31T17:29:44.558Z,100469.44
2018-07-31T17:32:12.603Z,100469.41
2018-07-31T17:34:40.636Z,100458.59
2018-07-31T17:37:08.678Z,100469.64
2018-07-31T17:39:36.727Z,100479.09
2018-07-31T17:42:04.772Z,100479.45
2018-07-31T17:44:32.846Z,100482.45
2018-07-31T17:47:00.882Z,100484.87
2018-07-31T17:49:28.932Z,100502.77
2018-07-31T17:51:56.979Z,100502.36
2018-07-31T17:54:25.023Z,100504.03
2018-07-31T17:56:53.072Z,100505.42
2018-07-31T17:59:21.387Z,100509.77
2018-07-31T18:01:49.455Z,100513.10
2018-07-31T18:04:17.474Z,100515.37
2018-07-31T18:06:45.531Z,100521.63
2018-07-31T18:09:13.573Z,100529.42
2018-07-31T18:11:41.602Z,100533.36
2018-07-31T18:14:09.724Z,100529.82
2018-07-31T18:16:38.267Z,100531.64
2018-07-31T18:19:06.415Z,100538.09
2018-07-31T18:21:34.455Z,100549.45
2018-07-31T18:24:02.872Z,100550.58
2018-07-31T18:26:30.946Z,100552.77
2018-07-31T18:28:58.975Z,100563.20
2018-07-31T18:31:27.047Z,100559.73
2018-07-31T18:33:55.103Z,100568.13
2018-07-31T18:36:23.146Z,100578.69
2018-07-31T18:38:51.174Z,100578.69
2018-07-31T18:41:19.596Z,100584.52
2018-07-31T18:43:47.570Z,100592.02
2018-07-31T18:46:15.686Z,100596.18
2018-07-31T18:48:43.743Z,100595.38
2018-07-31T18:51:11.776Z,100602.92
2018-07-31T18:53:39.819Z,100612.53
2018-07-31T18:56:07.847Z,100613.77
2018-07-31T18:58:35.886Z,100620.19
2018-07-31T19:01:03.931Z,100617.08
2018-07-31T19:03:32.012Z,100630.86
2018-07-31T19:06:00.027Z,100630.69
2018-07-31T19:08:28.140Z,100629.05
2018-07-31T19:10:56.158Z,100635.78
2018-07-31T19:13:24.179Z,100643.08
2018-07-31T19:15:52.223Z,100644.80
2018-07-31T19:18:20.243Z,100647.34
2018-07-31T19:20:48.308Z,100648.06
2018-07-31T19:23:16.324Z,100654.34
2018-07-31T19:25:44.347Z,100653.25
2018-07-31T19:28:12.468Z,100660.73
2018-07-31T19:30:40.401Z,100661.00
2018-07-31T19:33:08.489Z,100663.13
2018-07-31T19:35:36.468Z,100671.29
2018-07-31T19:38:04.507Z,100669.22
2018-07-31T19:40:32.607Z,100677.59
2018-07-31T19:43:00.602Z,100683.76
2018-07-31T19:45:28.727Z,100688.26
2018-07-31T19:47:57.634Z,100684.59
2018-07-31T19:50:26.273Z,100698.22
2018-07-31T19:52:55.174Z,100696.20
2018-07-31T19:55:24.009Z,100701.80
2018-07-31T19:57:53.466Z,100712.37
2018-07-31T20:00:22.882Z,100707.95
2018-07-31T20:02:52.036Z,100717.22
2018-07-31T20:05:21.447Z,100716.86
2018-07-31T20:07:49.880Z,100720.64
2018-07-31T20:10:18.583Z,100721.82
2018-07-31T20:12:46.938Z,100729.16
2018-07-31T20:15:15.099Z,100728.03
2018-07-31T20:17:43.095Z,100731.57
2018-07-31T20:20:11.241Z,100729.36
2018-07-31T20:22:39.316Z,100732.08
2018-07-31T20:25:07.459Z,100733.64
2018-07-31T20:27:35.480Z,100745.41
2018-07-31T20:30:03.627Z,100750.62
2018-07-31T20:32:31.689Z,100746.02
2018-07-31T20:34:59.767Z,100747.16
2018-07-31T20:37:27.787Z,100744.22
2018-07-31T20:39:56.318Z,100743.85
2018-07-31T20:42:25.607Z,100746.06
2018-07-31T20:44:54.789Z,100752.26
2018-07-31T20:47:23.509Z,100760.88
2018-07-31T20:49:51.926Z,100766.39
2018-07-31T20:52:21.298Z,100763.41
2018-07-31T20:54:49.862Z,100768.53
2018-07-31T20:57:18.077Z,100765.27
2018-07-31T20:59:46.217Z,100778.86
2018-07-31T21:02:14.320Z,100773.89
2018-07-31T21:04:42.339Z,100775.59
2018-07-31T21:07:10.378Z,100782.81
2018-07-31T21:09:38.426Z,100776.80
2018-07-31T21:12:06.550Z,100778.57
2018-07-31T21:14:34.559Z,100777.50
2018-07-31T21:17:02.592Z,100791.60
2018-07-31T21:19:30.736Z,100779.26
2018-07-31T21:21:59.136Z,100799.95
2018-07-31T21:24:28.441Z,100805.52
2018-07-31T21:26:56.786Z,100807.27
2018-07-31T21:29:25.103Z,100810.34
2018-07-31T21:31:53.804Z,100805.30
2018-07-31T21:34:22.215Z,100802.22
2018-07-31T21:36:50.886Z,100800.54
2018-07-31T21:39:18.978Z,100804.34
2018-07-31T21:41:47.039Z,100813.91
2018-07-31T21:44:15.094Z,100810.90
2018-07-31T21:46:43.291Z,100817.78
2018-07-31T21:49:11.299Z,100818.43
2018-07-31T21:51:39.375Z,100815.88
2018-07-31T21:54:07.499Z,100824.40
2018-07-31T21:56:35.528Z,100827.35
2018-07-31T21:59:03.563Z,100826.48
2018-07-31T22:01:31.596Z,100824.38
2018-07-31T22:03:59.675Z,100831.42
2018-07-31T22:06:27.698Z,100831.23
2018-07-31T22:12:27.207Z,100842.47
2018-07-31T22:14:55.383Z,100843.75
2018-07-31T22:17:23.423Z,100846.67
2018-07-31T22:19:51.452Z,100842.77
2018-07-31T22:22:19.488Z,100844.52
2018-07-31T22:24:47.618Z,100851.38
2018-07-31T22:27:15.593Z,100851.34
2018-07-31T22:29:43.616Z,100840.74
2018-07-31T22:32:11.647Z,100841.44
2018-07-31T22:34:39.675Z,100851.97
2018-07-31T22:37:07.691Z,100850.40
2018-07-31T22:39:35.898Z,100846.17
2018-07-31T22:42:03.932Z,100847.64
2018-07-31T22:44:31.991Z,100849.72
2018-07-31T22:46:59.991Z,100854.19
2018-07-31T22:49:28.009Z,100857.95
2018-07-31T22:51:57.808Z,100854.11
2018-07-31T22:54:25.830Z,100845.67
2018-07-31T22:56:53.863Z,100851.84
2018-07-31T22:59:21.889Z,100857.89
2018-07-31T23:01:49.938Z,100863.58
2018-07-31T23:04:17.983Z,100858.25
2018-07-31T23:06:46.011Z,100852.08
2018-07-31T23:09:14.031Z,100863.22
2018-07-31T23:11:42.080Z,100866.84
2018-07-31T23:14:10.176Z,100876.74
2018-07-31T23:16:38.187Z,100875.78
2018-07-31T23:19:06.464Z,100872.16
2018-07-31T23:21:34.787Z,100876.98
2018-07-31T23:24:02.819Z,100877.48
2018-07-31T23:26:30.931Z,100878.34
2018-07-31T23:28:58.975Z,100879.36
2018-07-31T23:31:26.997Z,100873.37
2018-07-31T23:33:55.039Z,100876.98
2018-07-31T23:36:23.066Z,100878.44
2018-07-31T23:38:51.093Z,100873.86
2018-07-31T23:41:19.179Z,100881.60
2018-07-31T23:43:47.224Z,100888.52
2018-07-31T23:46:15.247Z,100887.77
2018-07-31T23:48:43.283Z,100884.89
2018-07-31T23:51:11.303Z,100886.10
2018-07-31T23:53:39.355Z,100893.57
2018-07-31T23:56:07.375Z,100896.47
2018-07-31T23:58:35.399Z,100889.08
